Rosemark, Tennessee
Current Conditions -  °F | °C
As of 11:50 AM on Thursday 23 Oct 2014 (Local Time) from KNQA Reporting Station
Broken Clouds Broken Clouds  
Wind Chill: 63°   Ceiling: 15000
Heat Index: 63°   Visibility: 10mi
Dew Point: 45°   Wind: 3mph
Humidity: 52%   Direction: 90°E
Pressure: 30.2"   Gusts: NA
Location:  35.3343°N, 89.9316°W
Report Text: KNQA 231650Z 09003KT 10SM BKN150 BKN250 17/07 A3020
Loading
Personal Weather Stations






























Interactive Weather Map
Tropical Storm Tracking
New forecast layout! Learn more

10-Day Weather Forecast

Advertisements
Track Severe Weather on mobile